createdAt,value
2019-05-29T00:00:35.254Z,5.00
2019-05-29T00:01:35.241Z,4.30
2019-05-29T00:02:35.239Z,2.50
2019-05-29T00:03:35.231Z,2.30
2019-05-29T00:04:35.226Z,5.20
2019-05-29T00:05:35.221Z,3.70
2019-05-29T00:06:35.212Z,5.10
2019-05-29T00:07:35.205Z,1.60
2019-05-29T00:08:35.191Z,3.00
2019-05-29T00:09:35.188Z,1.80
2019-05-29T00:10:35.181Z,4.40
2019-05-29T00:11:35.174Z,6.40
2019-05-29T00:12:35.174Z,6.90
2019-05-29T00:13:35.167Z,2.90
2019-05-29T00:14:35.154Z,3.70
2019-05-29T00:15:35.147Z,4.00
2019-05-29T00:16:35.144Z,3.80
2019-05-29T00:17:35.141Z,4.60
2019-05-29T00:18:35.129Z,4.30
2019-05-29T00:19:35.120Z,2.70
2019-05-29T00:20:35.110Z,4.60
2019-05-29T00:21:35.102Z,2.50
2019-05-29T00:22:35.094Z,3.60
2019-05-29T00:23:35.087Z,2.90
2019-05-29T00:24:35.086Z,3.60
2019-05-29T00:25:35.078Z,6.10
2019-05-29T00:26:35.074Z,5.00
2019-05-29T00:27:35.067Z,4.00
2019-05-29T00:28:35.055Z,5.30
2019-05-29T00:29:35.046Z,4.20
2019-05-29T00:30:35.046Z,3.70
2019-05-29T00:31:35.040Z,5.20
2019-05-29T00:32:35.053Z,2.90
2019-05-29T00:33:35.019Z,2.90
2019-05-29T00:34:35.008Z,4.40
2019-05-29T00:35:35.004Z,5.40
2019-05-29T00:36:34.998Z,2.50
2019-05-29T00:37:34.992Z,2.60
2019-05-29T00:38:34.986Z,2.50
2019-05-29T00:39:34.976Z,3.50
2019-05-29T00:40:34.966Z,2.40
2019-05-29T00:41:34.959Z,4.10
2019-05-29T00:42:34.954Z,4.00
2019-05-29T00:43:34.947Z,5.20
2019-05-29T00:44:34.942Z,3.50
2019-05-29T00:45:34.937Z,4.20
2019-05-29T00:46:34.924Z,4.00
2019-05-29T00:47:34.917Z,3.20
2019-05-29T00:48:34.918Z,3.40
2019-05-29T00:49:34.906Z,4.90
2019-05-29T00:50:35.065Z,2.90
2019-05-29T00:51:34.896Z,4.60
2019-05-29T00:52:34.876Z,3.80
2019-05-29T00:53:34.870Z,2.90
2019-05-29T00:54:34.864Z,3.80
2019-05-29T00:55:34.856Z,2.80
2019-05-29T00:56:34.852Z,4.10
2019-05-29T00:57:34.847Z,3.40
2019-05-29T00:58:34.842Z,5.00
2019-05-29T00:59:34.833Z,3.80
2019-05-29T01:00:34.822Z,3.30
2019-05-29T01:01:34.820Z,4.40
2019-05-29T01:02:34.829Z,3.80
2019-05-29T01:03:34.804Z,4.00
2019-05-29T01:04:34.792Z,3.60
2019-05-29T01:05:34.784Z,3.10
2019-05-29T01:06:34.775Z,3.80
2019-05-29T01:07:34.769Z,3.50
2019-05-29T01:08:34.764Z,4.20
2019-05-29T01:09:34.757Z,3.60
2019-05-29T01:10:34.753Z,3.90
2019-05-29T01:11:34.744Z,4.00
2019-05-29T01:12:34.736Z,5.10
2019-05-29T01:13:34.726Z,3.50
2019-05-29T01:14:49.268Z,3.60
2019-05-29T01:15:34.705Z,3.20
2019-05-29T01:16:34.705Z,2.70
2019-05-29T01:17:34.696Z,2.80
2019-05-29T01:18:34.685Z,4.90
2019-05-29T01:19:34.678Z,2.90
2019-05-29T01:20:34.674Z,4.80
2019-05-29T01:21:34.669Z,3.90
2019-05-29T01:22:34.663Z,5.90
2019-05-29T01:23:34.651Z,2.60
2019-05-29T01:24:34.644Z,2.80
2019-05-29T01:25:34.634Z,3.20
2019-05-29T01:26:34.635Z,2.40
2019-05-29T01:27:34.619Z,3.70
2019-05-29T01:28:34.615Z,2.80
2019-05-29T01:29:34.606Z,3.00
2019-05-29T01:30:34.599Z,3.90
2019-05-29T01:31:34.590Z,4.90
2019-05-29T01:32:34.576Z,3.60
2019-05-29T01:33:34.571Z,3.80
2019-05-29T01:34:34.568Z,2.40
2019-05-29T01:35:34.558Z,2.30
2019-05-29T01:36:34.548Z,3.00
2019-05-29T01:37:34.546Z,4.50
2019-05-29T01:38:34.535Z,4.00
2019-05-29T01:39:34.545Z,5.00
2019-05-29T01:40:34.523Z,2.70
2019-05-29T01:41:34.516Z,5.30
2019-05-29T01:42:34.509Z,2.20
2019-05-29T01:43:34.502Z,2.80
2019-05-29T01:44:34.490Z,3.00
2019-05-29T01:45:34.481Z,3.40
2019-05-29T01:46:34.470Z,3.60
2019-05-29T01:47:34.461Z,3.10
2019-05-29T01:48:34.457Z,3.60
2019-05-29T01:49:34.451Z,3.10
2019-05-29T01:50:34.443Z,3.20
2019-05-29T01:51:34.429Z,4.30
2019-05-29T01:52:34.428Z,2.40
2019-05-29T01:53:34.420Z,4.20
2019-05-29T01:54:34.412Z,3.00
2019-05-29T01:55:34.404Z,4.20
2019-05-29T01:56:34.393Z,5.90
2019-05-29T01:57:34.386Z,4.70
2019-05-29T01:58:34.378Z,4.70
2019-05-29T01:59:34.372Z,5.40
2019-05-29T02:00:34.366Z,7.00
2019-05-29T02:01:34.358Z,5.50
2019-05-29T02:02:34.349Z,6.00
2019-05-29T02:03:34.337Z,5.70
2019-05-29T02:04:34.328Z,6.70
2019-05-29T02:05:34.318Z,6.90
2019-05-29T02:06:34.316Z,6.00
2019-05-29T02:07:34.308Z,5.30
2019-05-29T02:08:34.294Z,6.60
2019-05-29T02:09:34.287Z,6.60
2019-05-29T02:10:34.283Z,6.90
2019-05-29T02:11:34.271Z,7.60
2019-05-29T02:12:34.270Z,9.70
2019-05-29T02:13:34.259Z,7.30
2019-05-29T02:14:34.260Z,5.90
2019-05-29T02:15:34.279Z,5.20
2019-05-29T02:16:34.232Z,8.70
2019-05-29T02:17:34.228Z,5.00
2019-05-29T02:18:34.218Z,5.00
2019-05-29T02:19:34.205Z,5.90
2019-05-29T02:20:34.202Z,3.60
2019-05-29T02:21:34.194Z,7.10
2019-05-29T02:22:34.181Z,5.60
2019-05-29T02:23:34.173Z,4.30
2019-05-29T02:24:34.168Z,5.70
2019-05-29T02:25:34.164Z,5.10
2019-05-29T02:26:34.155Z,3.80
2019-05-29T02:27:34.145Z,4.60
2019-05-29T02:28:34.136Z,3.80
2019-05-29T02:29:34.126Z,4.60
2019-05-29T02:30:34.121Z,5.10
2019-05-29T02:31:34.111Z,3.50
2019-05-29T02:32:34.109Z,5.70
2019-05-29T02:33:34.100Z,4.00
2019-05-29T02:34:34.090Z,4.90
2019-05-29T02:35:34.078Z,4.20
2019-05-29T02:36:34.067Z,5.70
2019-05-29T02:37:34.060Z,3.60
2019-05-29T02:38:34.057Z,3.80
2019-05-29T02:39:34.046Z,5.40
2019-05-29T02:40:34.042Z,5.50
2019-05-29T02:41:34.026Z,4.40
2019-05-29T02:42:34.021Z,4.40
2019-05-29T02:43:34.012Z,4.30
2019-05-29T02:44:34.013Z,4.30
2019-05-29T02:45:53.192Z,4.00
2019-05-29T02:46:33.991Z,3.20
2019-05-29T02:47:33.981Z,5.70
2019-05-29T02:48:33.969Z,6.00
2019-05-29T02:49:33.960Z,6.60
2019-05-29T02:50:33.952Z,4.70
2019-05-29T02:51:33.943Z,4.90
2019-05-29T02:52:33.939Z,6.30
2019-05-29T02:53:33.932Z,3.90
2019-05-29T02:54:33.918Z,5.80
2019-05-29T02:55:33.908Z,4.30
2019-05-29T02:56:33.906Z,3.20
2019-05-29T02:57:33.900Z,3.60
2019-05-29T02:58:33.900Z,3.80
2019-05-29T02:59:33.887Z,5.10
2019-05-29T03:00:33.867Z,6.20
2019-05-29T03:01:33.862Z,4.10
2019-05-29T03:02:33.853Z,4.40
2019-05-29T03:03:39.422Z,7.80
2019-05-29T03:04:33.839Z,5.20
2019-05-29T03:05:33.831Z,4.10
2019-05-29T03:06:33.823Z,3.80
2019-05-29T03:07:33.811Z,4.40
2019-05-29T03:08:34.432Z,5.10
2019-05-29T03:09:33.789Z,6.90
2019-05-29T03:10:33.786Z,4.40
2019-05-29T03:11:33.780Z,4.40
2019-05-29T03:12:33.900Z,4.00
2019-05-29T03:13:33.888Z,3.40
2019-05-29T03:14:34.699Z,6.00
2019-05-29T03:15:33.939Z,6.00
2019-05-29T03:16:34.896Z,4.00
2019-05-29T03:17:33.937Z,6.50
2019-05-29T03:18:35.028Z,4.90
2019-05-29T03:19:34.761Z,3.80
2019-05-29T03:20:34.549Z,5.10
2019-05-29T03:21:34.784Z,4.40
2019-05-29T03:22:35.142Z,4.70
2019-05-29T03:23:35.946Z,6.70
2019-05-29T03:24:35.128Z,5.40
2019-05-29T03:25:35.163Z,3.90
2019-05-29T03:26:35.112Z,4.50
2019-05-29T03:27:34.031Z,4.00
2019-05-29T03:28:35.105Z,4.40
2019-05-29T03:29:34.314Z,3.80
2019-05-29T03:30:41.383Z,5.30
2019-05-29T03:31:39.583Z,3.80
2019-05-29T03:32:42.246Z,4.80
2019-05-29T03:33:40.845Z,3.80
2019-05-29T03:34:39.269Z,4.10
2019-05-29T03:35:43.944Z,4.00
2019-05-29T03:36:39.548Z,5.90
2019-05-29T03:37:34.465Z,3.60
2019-05-29T03:38:34.963Z,3.90
2019-05-29T03:39:34.612Z,6.30
2019-05-29T03:40:35.122Z,4.00
2019-05-29T03:41:34.874Z,4.00
2019-05-29T03:42:34.474Z,4.90
2019-05-29T03:43:35.788Z,4.50
2019-05-29T03:44:35.348Z,6.30
2019-05-29T03:45:35.718Z,3.90
2019-05-29T03:46:41.185Z,4.00
2019-05-29T03:47:34.955Z,4.00
2019-05-29T03:48:34.376Z,4.60
2019-05-29T03:49:35.019Z,4.20
2019-05-29T03:50:34.947Z,4.40
2019-05-29T03:51:35.077Z,5.00
2019-05-29T03:52:34.724Z,5.30
2019-05-29T03:53:34.262Z,5.10
2019-05-29T03:54:35.317Z,4.60
2019-05-29T03:55:33.713Z,4.70
2019-05-29T03:56:34.780Z,6.00
2019-05-29T03:57:33.849Z,4.20
2019-05-29T03:58:34.848Z,4.10
2019-05-29T03:59:35.086Z,3.60
2019-05-29T04:00:41.706Z,3.80
2019-05-29T04:01:35.323Z,5.30
2019-05-29T04:02:35.266Z,5.80
2019-05-29T04:03:35.057Z,5.00
2019-05-29T04:04:34.117Z,6.10
2019-05-29T04:05:33.919Z,5.80
2019-05-29T04:06:33.487Z,4.50
2019-05-29T04:07:34.114Z,5.00
2019-05-29T04:08:33.642Z,4.90
2019-05-29T04:09:33.465Z,4.40
2019-05-29T04:10:35.576Z,4.60
2019-05-29T04:11:33.294Z,5.80
2019-05-29T04:12:33.506Z,3.40
2019-05-29T04:13:34.050Z,6.70
2019-05-29T04:14:33.522Z,5.60
2019-05-29T04:15:33.739Z,5.20
2019-05-29T04:16:52.441Z,6.60
2019-05-29T04:17:33.752Z,6.20
2019-05-29T04:18:33.876Z,5.10
2019-05-29T04:19:34.907Z,3.70
2019-05-29T04:20:33.590Z,5.40
2019-05-29T04:21:34.313Z,5.10
2019-05-29T04:22:34.319Z,4.30
2019-05-29T04:23:34.116Z,4.50
2019-05-29T04:24:33.973Z,4.60
2019-05-29T04:25:35.994Z,5.10
2019-05-29T04:26:34.015Z,4.30
2019-05-29T04:27:34.295Z,4.30
2019-05-29T04:28:34.865Z,5.80
2019-05-29T04:29:34.127Z,3.70
2019-05-29T04:30:34.302Z,5.30
2019-05-29T04:31:34.483Z,3.80
2019-05-29T04:32:34.179Z,4.50
2019-05-29T04:33:34.786Z,4.50
2019-05-29T04:34:34.267Z,4.30
2019-05-29T04:35:34.472Z,4.20
2019-05-29T04:36:34.748Z,4.90
2019-05-29T04:37:34.316Z,4.00
2019-05-29T04:38:33.910Z,5.70
2019-05-29T04:39:34.384Z,4.40
2019-05-29T04:40:34.800Z,4.30
2019-05-29T04:41:34.624Z,6.30
2019-05-29T04:42:34.009Z,4.40
2019-05-29T04:43:33.785Z,6.10
2019-05-29T04:44:33.895Z,5.00
2019-05-29T04:45:33.511Z,5.80
2019-05-29T04:46:34.026Z,4.40
2019-05-29T04:47:33.362Z,4.60
2019-05-29T04:48:34.067Z,5.90
2019-05-29T04:49:33.720Z,4.70
2019-05-29T04:50:33.465Z,4.40
2019-05-29T04:51:33.161Z,4.80
2019-05-29T04:52:33.817Z,7.40
2019-05-29T04:53:33.542Z,4.10
2019-05-29T04:54:33.316Z,4.90
2019-05-29T04:55:32.900Z,4.80
2019-05-29T04:56:32.891Z,5.20
2019-05-29T04:57:32.930Z,4.40
2019-05-29T04:58:32.897Z,6.30
2019-05-29T04:59:33.098Z,5.70
2019-05-29T05:00:33.151Z,5.00
2019-05-29T05:01:33.120Z,5.00
2019-05-29T05:02:33.102Z,5.30
2019-05-29T05:03:33.227Z,5.30
2019-05-29T05:04:33.215Z,4.20
2019-05-29T05:05:33.235Z,4.70
2019-05-29T05:06:33.229Z,5.50
2019-05-29T05:07:33.214Z,4.50
2019-05-29T05:08:33.367Z,4.00
2019-05-29T05:09:33.382Z,4.70
2019-05-29T05:10:33.391Z,8.00
2019-05-29T05:11:33.356Z,5.30
2019-05-29T05:12:33.622Z,3.80
2019-05-29T05:13:33.452Z,4.30
2019-05-29T05:14:33.593Z,5.50
2019-05-29T05:15:33.647Z,5.40
2019-05-29T05:16:33.680Z,6.70
2019-05-29T05:17:33.766Z,4.00
2019-05-29T05:18:33.788Z,4.90
2019-05-29T05:19:33.902Z,3.20
2019-05-29T05:20:33.939Z,5.30
2019-05-29T05:21:33.930Z,4.20
2019-05-29T05:22:34.175Z,3.20
2019-05-29T05:23:33.968Z,6.10
2019-05-29T05:24:34.083Z,3.40
2019-05-29T05:25:34.069Z,3.30
2019-05-29T05:26:32.793Z,4.80
2019-05-29T05:27:32.791Z,3.50
2019-05-29T05:28:32.786Z,4.90
2019-05-29T05:29:32.791Z,3.00
2019-05-29T05:30:32.791Z,4.30
2019-05-29T05:31:32.792Z,4.80
2019-05-29T05:32:32.797Z,3.10
2019-05-29T05:33:32.798Z,4.30
2019-05-29T05:34:32.800Z,4.70
2019-05-29T05:35:32.798Z,4.80
2019-05-29T05:36:32.803Z,4.00
2019-05-29T05:37:32.806Z,6.60
2019-05-29T05:38:32.804Z,3.20
2019-05-29T05:39:32.867Z,3.20
2019-05-29T05:40:35.979Z,4.30
2019-05-29T05:41:32.809Z,6.40
2019-05-29T05:42:32.931Z,4.00
2019-05-29T05:43:32.918Z,5.50
2019-05-29T05:44:32.892Z,4.90
2019-05-29T05:45:33.030Z,2.80
2019-05-29T05:46:32.973Z,2.90
2019-05-29T05:47:45.086Z,3.00
2019-05-29T05:48:33.038Z,3.90
2019-05-29T05:49:33.241Z,5.40
2019-05-29T05:50:33.315Z,4.70
2019-05-29T05:51:33.491Z,4.40
2019-05-29T05:52:33.765Z,4.10
2019-05-29T05:53:33.391Z,5.40
2019-05-29T05:54:33.373Z,3.90
2019-05-29T05:55:33.502Z,7.90
2019-05-29T05:56:33.653Z,6.40
2019-05-29T05:57:33.550Z,3.90
2019-05-29T05:58:33.800Z,4.20
2019-05-29T05:59:33.601Z,6.40
2019-05-29T06:00:33.983Z,4.00
2019-05-29T06:01:33.803Z,5.30
2019-05-29T06:02:33.760Z,5.00
2019-05-29T06:03:33.932Z,4.50
2019-05-29T06:04:33.815Z,4.20
2019-05-29T06:05:33.979Z,3.90
2019-05-29T06:06:33.939Z,4.50
2019-05-29T06:07:34.068Z,4.20
2019-05-29T06:08:34.007Z,6.00
2019-05-29T06:09:34.125Z,4.70
2019-05-29T06:10:33.944Z,4.70
2019-05-29T06:11:34.099Z,5.10
2019-05-29T06:12:34.351Z,7.40
2019-05-29T06:13:34.111Z,5.40
2019-05-29T06:14:32.944Z,4.40
2019-05-29T06:15:32.950Z,2.80
2019-05-29T06:16:33.025Z,3.10
2019-05-29T06:17:32.966Z,3.90
2019-05-29T06:18:32.975Z,4.00
2019-05-29T06:19:32.982Z,3.00
2019-05-29T06:20:32.984Z,2.10
2019-05-29T06:21:32.992Z,2.30
2019-05-29T06:22:33.003Z,2.30
2019-05-29T06:23:33.005Z,2.60
2019-05-29T06:24:33.461Z,5.00
2019-05-29T06:25:33.789Z,2.30
2019-05-29T06:26:33.017Z,4.10
2019-05-29T06:27:33.746Z,4.20
2019-05-29T06:28:33.110Z,3.50
2019-05-29T06:29:33.478Z,2.60
2019-05-29T06:30:34.008Z,3.30
2019-05-29T06:31:33.349Z,3.80
2019-05-29T06:32:33.481Z,3.50
2019-05-29T06:33:33.421Z,2.60
2019-05-29T06:34:33.491Z,3.50
2019-05-29T06:35:34.124Z,3.90
2019-05-29T06:36:33.429Z,4.60
2019-05-29T06:37:33.638Z,3.80
2019-05-29T06:38:33.597Z,5.60
2019-05-29T06:39:33.473Z,3.80
2019-05-29T06:40:33.966Z,3.20
2019-05-29T06:41:33.635Z,3.90
2019-05-29T06:42:33.584Z,3.30
2019-05-29T06:43:33.815Z,3.50
2019-05-29T06:44:34.264Z,4.30
2019-05-29T06:45:33.759Z,3.70
2019-05-29T06:46:34.333Z,3.20
2019-05-29T06:47:34.226Z,3.80
2019-05-29T06:48:50.128Z,2.00
2019-05-29T06:49:33.904Z,2.70
2019-05-29T06:50:33.178Z,3.30
2019-05-29T06:51:33.184Z,2.20
2019-05-29T06:52:33.197Z,3.10
2019-05-29T06:53:33.204Z,2.10
2019-05-29T06:54:33.208Z,4.00
2019-05-29T06:55:33.213Z,4.30
2019-05-29T06:56:33.225Z,5.80
2019-05-29T06:57:33.236Z,3.50
2019-05-29T06:58:33.265Z,3.50
2019-05-29T06:59:33.249Z,3.50
2019-05-29T07:00:35.695Z,2.80
2019-05-29T07:01:33.262Z,2.70
2019-05-29T07:02:33.271Z,2.80
2019-05-29T07:03:33.283Z,4.50
2019-05-29T07:04:33.294Z,2.00
2019-05-29T07:05:33.298Z,2.40
2019-05-29T07:06:33.303Z,3.60
2019-05-29T07:07:33.312Z,2.40
2019-05-29T07:08:38.839Z,2.80
2019-05-29T07:09:33.321Z,2.40
2019-05-29T07:10:33.370Z,3.40
2019-05-29T07:11:33.342Z,4.50
2019-05-29T07:12:33.345Z,2.50
2019-05-29T07:13:35.225Z,3.80
2019-05-29T07:14:33.363Z,3.30
2019-05-29T07:15:33.372Z,2.20
2019-05-29T07:16:43.846Z,2.50
2019-05-29T07:17:33.392Z,2.60
2019-05-29T07:18:33.406Z,3.00
2019-05-29T07:19:47.589Z,3.40
2019-05-29T07:20:33.413Z,2.20
2019-05-29T07:21:33.425Z,6.50
2019-05-29T07:22:33.428Z,2.10
2019-05-29T07:23:33.439Z,2.00
2019-05-29T07:24:33.450Z,2.80
2019-05-29T07:25:33.459Z,2.00
2019-05-29T07:26:33.569Z,3.80
2019-05-29T07:27:33.474Z,2.20
2019-05-29T07:28:33.489Z,2.30
2019-05-29T07:29:33.496Z,1.90
2019-05-29T07:30:33.514Z,2.10
2019-05-29T07:31:33.517Z,2.40
2019-05-29T07:32:33.524Z,2.60
2019-05-29T07:33:33.534Z,3.90
2019-05-29T07:34:49.682Z,3.30
2019-05-29T07:35:33.549Z,1.90
2019-05-29T07:36:33.575Z,1.90
2019-05-29T07:37:33.576Z,2.90
2019-05-29T07:38:33.586Z,2.90
2019-05-29T07:39:33.595Z,2.30
2019-05-29T07:40:35.893Z,4.80
2019-05-29T07:41:33.614Z,1.60
2019-05-29T07:42:33.627Z,3.70
2019-05-29T07:43:33.636Z,3.90
2019-05-29T07:44:33.643Z,4.30
2019-05-29T07:45:33.656Z,2.10
2019-05-29T07:46:33.668Z,2.80
2019-05-29T07:47:33.674Z,4.20
2019-05-29T07:48:33.688Z,2.40
2019-05-29T07:49:39.133Z,2.10
2019-05-29T07:50:33.712Z,2.20
2019-05-29T07:51:33.724Z,2.00
2019-05-29T07:52:33.731Z,4.50
2019-05-29T07:53:33.849Z,3.80
2019-05-29T07:54:33.761Z,2.80
2019-05-29T07:55:33.771Z,2.90
2019-05-29T07:56:33.788Z,1.60
2019-05-29T07:57:33.800Z,1.90
2019-05-29T07:58:33.808Z,2.20
2019-05-29T07:59:33.820Z,3.00
2019-05-29T08:00:36.160Z,2.80
2019-05-29T08:01:33.848Z,3.00
2019-05-29T08:02:33.859Z,2.80
2019-05-29T08:03:33.870Z,2.10
2019-05-29T08:04:33.879Z,3.90
2019-05-29T08:05:33.893Z,2.50
2019-05-29T08:06:33.907Z,1.70
2019-05-29T08:07:33.916Z,3.30
2019-05-29T08:08:33.934Z,1.60
2019-05-29T08:09:33.946Z,2.00
2019-05-29T08:10:33.964Z,2.20
2019-05-29T08:11:33.975Z,2.40
2019-05-29T08:12:34.068Z,1.70
2019-05-29T08:13:33.998Z,2.80
2019-05-29T08:14:34.016Z,2.30
2019-05-29T08:15:34.028Z,1.70
2019-05-29T08:16:34.036Z,2.20
2019-05-29T08:17:34.052Z,3.00
2019-05-29T08:18:34.064Z,3.20
2019-05-29T08:19:34.075Z,5.70
2019-05-29T08:20:34.094Z,2.60
2019-05-29T08:21:34.111Z,1.80
2019-05-29T08:22:34.848Z,1.90
2019-05-29T08:23:34.134Z,1.90
2019-05-29T08:24:34.145Z,2.10
2019-05-29T08:25:34.159Z,3.20
2019-05-29T08:26:34.177Z,2.80
2019-05-29T08:27:34.193Z,3.90
2019-05-29T08:28:34.216Z,2.50
2019-05-29T08:29:34.226Z,2.20
2019-05-29T08:30:34.238Z,2.10
2019-05-29T08:31:34.251Z,2.20
2019-05-29T08:32:34.278Z,4.20
2019-05-29T08:33:34.287Z,1.80
2019-05-29T08:34:34.302Z,5.20
2019-05-29T08:35:34.319Z,2.20
2019-05-29T08:36:34.327Z,2.50
2019-05-29T08:37:34.347Z,2.20
2019-05-29T08:38:34.364Z,3.10
2019-05-29T08:39:36.867Z,2.20
2019-05-29T08:40:34.401Z,2.20
2019-05-29T08:41:34.420Z,2.30
2019-05-29T08:42:34.437Z,1.80
2019-05-29T08:43:34.457Z,1.80
2019-05-29T08:44:34.467Z,2.20
2019-05-29T08:45:34.496Z,1.90
2019-05-29T08:46:34.510Z,1.70
2019-05-29T08:47:34.526Z,2.00
2019-05-29T08:48:34.595Z,3.20
2019-05-29T08:49:34.558Z,2.10
2019-05-29T08:50:34.579Z,2.40
2019-05-29T08:51:34.597Z,2.30
2019-05-29T08:52:34.619Z,2.80
2019-05-29T08:53:34.643Z,2.60
2019-05-29T08:54:34.657Z,2.40
2019-05-29T08:55:34.674Z,2.70
2019-05-29T08:56:34.692Z,3.30
2019-05-29T08:57:34.711Z,5.00
2019-05-29T08:58:37.233Z,3.90
2019-05-29T08:59:34.743Z,3.40
2019-05-29T09:00:34.768Z,2.30
2019-05-29T09:01:34.786Z,2.50
2019-05-29T09:02:34.805Z,4.10
2019-05-29T09:03:34.823Z,2.60
2019-05-29T09:04:34.848Z,2.10
2019-05-29T09:05:34.865Z,2.60
2019-05-29T09:06:34.888Z,3.00
2019-05-29T09:07:34.904Z,2.30
2019-05-29T09:08:34.921Z,2.00
2019-05-29T09:09:34.941Z,2.20
2019-05-29T09:10:34.961Z,2.20
2019-05-29T09:11:34.980Z,2.70
2019-05-29T09:12:35.000Z,2.40
2019-05-29T09:13:35.019Z,2.80
2019-05-29T09:14:35.039Z,3.40
2019-05-29T09:15:35.059Z,2.90
2019-05-29T09:16:35.070Z,3.80
2019-05-29T09:17:35.090Z,2.60
2019-05-29T09:18:35.112Z,2.20
2019-05-29T09:19:35.126Z,2.20
2019-05-29T09:20:57.735Z,2.00
2019-05-29T09:21:35.159Z,1.80
2019-05-29T09:22:35.180Z,2.20
2019-05-29T09:23:35.217Z,1.70
2019-05-29T09:24:35.220Z,1.70
2019-05-29T09:25:35.238Z,2.30
2019-05-29T09:26:35.256Z,2.50
2019-05-29T09:27:35.275Z,2.40
2019-05-29T09:28:35.291Z,2.00
2019-05-29T09:29:35.310Z,1.80
2019-05-29T09:30:35.327Z,2.80
2019-05-29T09:31:35.343Z,1.60
2019-05-29T09:32:49.613Z,1.60
2019-05-29T09:33:35.386Z,2.80
2019-05-29T09:34:35.407Z,1.70
2019-05-29T09:35:35.420Z,2.00
2019-05-29T09:36:35.446Z,1.90
2019-05-29T09:37:35.465Z,3.30
2019-05-29T09:38:35.484Z,3.20
2019-05-29T09:39:35.502Z,1.70
2019-05-29T09:40:35.518Z,1.60
2019-05-29T09:41:35.540Z,1.60
2019-05-29T09:42:35.577Z,2.00
2019-05-29T09:43:35.572Z,2.30
2019-05-29T09:44:39.204Z,2.90
2019-05-29T09:45:35.618Z,3.70
2019-05-29T09:46:35.640Z,2.20
2019-05-29T09:47:35.702Z,1.70
2019-05-29T09:48:48.758Z,2.10
2019-05-29T09:49:35.694Z,2.50
2019-05-29T09:50:49.547Z,1.80
2019-05-29T09:51:35.737Z,1.90
2019-05-29T09:52:35.765Z,1.80
2019-05-29T09:53:35.773Z,1.90
2019-05-29T09:54:35.996Z,3.40
2019-05-29T09:55:35.808Z,1.90
2019-05-29T09:56:35.835Z,1.70
2019-05-29T09:57:35.855Z,2.10
2019-05-29T09:58:35.875Z,1.80
2019-05-29T09:59:35.896Z,2.10
2019-05-29T10:00:35.910Z,1.90
2019-05-29T10:01:35.948Z,1.70
2019-05-29T10:02:35.953Z,2.10
2019-05-29T10:03:35.972Z,2.20
2019-05-29T10:04:36.172Z,2.40
2019-05-29T10:05:36.017Z,2.00
2019-05-29T10:06:36.042Z,3.20
2019-05-29T10:07:36.053Z,2.00
2019-05-29T10:08:36.118Z,2.00
2019-05-29T10:09:36.095Z,1.80
2019-05-29T10:10:36.118Z,2.20
2019-05-29T10:11:36.179Z,2.60
2019-05-29T10:12:36.143Z,2.40
2019-05-29T10:13:36.163Z,2.20
2019-05-29T10:14:36.181Z,1.80
2019-05-29T10:15:36.195Z,2.30
2019-05-29T10:16:36.218Z,2.30
2019-05-29T10:17:36.241Z,2.00
2019-05-29T10:18:36.257Z,1.70
2019-05-29T10:19:36.275Z,1.80
2019-05-29T10:20:36.287Z,1.60
2019-05-29T10:21:40.471Z,1.70
2019-05-29T10:22:36.328Z,2.60
2019-05-29T10:23:36.355Z,2.10
2019-05-29T10:24:36.356Z,1.90
2019-05-29T10:25:36.373Z,1.80
2019-05-29T10:26:36.389Z,2.10
2019-05-29T10:27:36.408Z,2.00
2019-05-29T10:28:49.911Z,1.70
2019-05-29T10:29:36.441Z,2.30
2019-05-29T10:30:36.458Z,1.80
2019-05-29T10:31:36.474Z,1.80
2019-05-29T10:32:36.488Z,1.90
2019-05-29T10:33:36.507Z,2.00
2019-05-29T10:34:36.524Z,3.90
2019-05-29T10:35:36.536Z,3.10
2019-05-29T10:36:36.563Z,3.50
2019-05-29T10:37:36.574Z,1.90
2019-05-29T10:38:36.586Z,2.50
2019-05-29T10:39:36.602Z,2.40
2019-05-29T10:40:36.621Z,2.80
2019-05-29T10:41:36.639Z,1.50
2019-05-29T10:42:36.653Z,2.00
2019-05-29T10:43:36.671Z,2.70
2019-05-29T10:44:36.686Z,1.60
2019-05-29T10:45:36.697Z,1.80
2019-05-29T10:46:36.728Z,2.30
2019-05-29T10:47:36.733Z,2.50
2019-05-29T10:48:36.750Z,2.70
2019-05-29T10:49:36.770Z,1.80
2019-05-29T10:50:36.787Z,2.40
2019-05-29T10:51:36.804Z,2.70
2019-05-29T10:52:36.820Z,2.00
2019-05-29T10:53:36.840Z,1.80
2019-05-29T10:54:39.240Z,1.50
2019-05-29T10:55:36.872Z,2.30
2019-05-29T10:56:36.884Z,2.10
2019-05-29T10:57:36.902Z,2.10
2019-05-29T10:58:48.530Z,1.60
2019-05-29T10:59:36.931Z,1.50
2019-05-29T11:00:39.072Z,2.10
2019-05-29T11:01:36.969Z,1.80
2019-05-29T11:02:36.992Z,1.80
2019-05-29T11:03:37.002Z,1.70
2019-05-29T11:04:37.011Z,2.70
2019-05-29T11:05:37.028Z,2.70
2019-05-29T11:06:40.505Z,2.50
2019-05-29T11:07:37.057Z,2.40
2019-05-29T11:08:37.076Z,2.40
2019-05-29T11:09:44.634Z,1.90
2019-05-29T11:10:37.102Z,3.30
2019-05-29T11:11:37.115Z,1.70
2019-05-29T11:12:39.574Z,2.30
2019-05-29T11:13:37.149Z,2.00
2019-05-29T11:14:37.162Z,2.20
2019-05-29T11:15:37.177Z,3.10
2019-05-29T11:16:39.739Z,1.60
2019-05-29T11:17:37.201Z,1.90
2019-05-29T11:18:37.233Z,3.00
2019-05-29T11:19:37.232Z,4.00
2019-05-29T11:20:37.250Z,3.30
2019-05-29T11:21:37.265Z,3.70
2019-05-29T11:22:37.273Z,2.60
2019-05-29T11:23:37.305Z,2.80
2019-05-29T11:24:37.332Z,1.60
2019-05-29T11:25:37.303Z,1.80
2019-05-29T11:26:37.320Z,2.30
2019-05-29T11:27:37.329Z,1.70
2019-05-29T11:28:37.333Z,2.90
2019-05-29T11:29:37.341Z,2.20
2019-05-29T11:30:37.356Z,1.40
2019-05-29T11:31:37.358Z,1.40
2019-05-29T11:32:37.365Z,1.40
2019-05-29T11:33:37.374Z,2.20
2019-05-29T11:34:37.380Z,2.20
2019-05-29T11:35:37.390Z,1.80
2019-05-29T11:36:37.393Z,2.80
2019-05-29T11:37:37.395Z,1.80
2019-05-29T11:38:37.404Z,1.90
2019-05-29T11:39:37.406Z,3.30
2019-05-29T11:40:37.975Z,2.30
2019-05-29T11:41:37.422Z,1.50
2019-05-29T11:42:37.426Z,1.30
2019-05-29T11:43:37.428Z,1.90
2019-05-29T11:44:37.438Z,2.00
2019-05-29T11:45:37.532Z,2.10
2019-05-29T11:46:37.442Z,1.60
2019-05-29T11:47:37.447Z,2.10
2019-05-29T11:48:37.446Z,2.20
2019-05-29T11:49:37.449Z,1.60
2019-05-29T11:50:37.454Z,2.10
2019-05-29T11:51:37.459Z,1.60
2019-05-29T11:52:42.878Z,4.60
2019-05-29T11:53:37.469Z,1.50
2019-05-29T11:54:37.471Z,1.90
2019-05-29T11:55:37.472Z,2.20
2019-05-29T11:56:37.471Z,2.70
2019-05-29T11:57:39.594Z,1.50
2019-05-29T11:58:37.479Z,2.20
2019-05-29T11:59:37.496Z,1.80
2019-05-29T12:00:37.477Z,3.50
2019-05-29T12:01:49.638Z,1.40
2019-05-29T12:02:37.490Z,1.60
2019-05-29T12:03:58.094Z,1.80
2019-05-29T12:04:37.492Z,2.10
2019-05-29T12:05:37.494Z,2.30
2019-05-29T12:06:37.497Z,1.70
2019-05-29T12:07:37.502Z,2.10
2019-05-29T12:08:37.570Z,2.00
2019-05-29T12:09:37.534Z,1.70
2019-05-29T12:10:37.493Z,1.90
2019-05-29T12:11:37.496Z,1.50
2019-05-29T12:12:37.500Z,1.10
2019-05-29T12:13:37.502Z,1.60
2019-05-29T12:14:58.029Z,1.90
2019-05-29T12:15:37.499Z,2.60
2019-05-29T12:16:37.503Z,1.70
2019-05-29T12:17:38.170Z,2.40
2019-05-29T12:18:37.509Z,1.90
2019-05-29T12:19:37.531Z,2.50
2019-05-29T12:20:37.527Z,2.40
2019-05-29T12:21:37.513Z,1.50
2019-05-29T12:22:37.525Z,1.40
2019-05-29T12:23:37.507Z,2.70
2019-05-29T12:24:37.512Z,1.70
2019-05-29T12:25:37.514Z,1.70
2019-05-29T12:26:37.510Z,2.10
2019-05-29T12:27:37.513Z,2.00
2019-05-29T12:28:37.508Z,3.00
2019-05-29T12:29:37.512Z,2.10
2019-05-29T12:30:37.517Z,1.20
2019-05-29T12:31:37.574Z,2.50
2019-05-29T12:32:37.514Z,3.60
2019-05-29T12:33:37.514Z,2.60
2019-05-29T12:34:45.170Z,2.00
2019-05-29T12:35:37.518Z,1.20
2019-05-29T12:36:37.524Z,1.50
2019-05-29T12:37:37.526Z,2.00
2019-05-29T12:38:37.526Z,2.00
2019-05-29T12:39:37.525Z,1.90
2019-05-29T12:40:37.530Z,2.00
2019-05-29T12:41:37.525Z,1.40
2019-05-29T12:42:37.524Z,1.20
2019-05-29T12:43:37.525Z,3.20
2019-05-29T12:44:37.531Z,3.00
2019-05-29T12:45:37.533Z,2.00
2019-05-29T12:46:37.530Z,3.00
2019-05-29T12:47:37.530Z,2.70
2019-05-29T12:48:37.538Z,2.40
2019-05-29T12:49:37.576Z,2.40
2019-05-29T12:50:37.544Z,2.20
2019-05-29T12:51:37.543Z,2.60
2019-05-29T12:52:37.543Z,1.90
2019-05-29T12:53:37.721Z,1.70
2019-05-29T12:54:37.544Z,2.50
2019-05-29T12:55:37.546Z,5.50
2019-05-29T12:56:37.551Z,2.00
2019-05-29T12:57:37.553Z,1.30
2019-05-29T12:58:37.557Z,3.80
2019-05-29T12:59:37.559Z,3.00
2019-05-29T13:00:37.558Z,2.20
2019-05-29T13:01:37.642Z,2.20
2019-05-29T13:02:37.570Z,2.50
2019-05-29T13:03:37.565Z,2.40
2019-05-29T13:05:06.378Z,2.90
2019-05-29T13:05:37.566Z,3.00
2019-05-29T13:06:37.567Z,3.90
2019-05-29T13:07:37.568Z,6.80
2019-05-29T13:08:37.573Z,2.30
2019-05-29T13:09:37.575Z,3.20
2019-05-29T13:10:37.575Z,4.20
2019-05-29T13:11:37.577Z,3.50
2019-05-29T13:12:37.574Z,3.30
2019-05-29T13:13:37.580Z,3.50
2019-05-29T13:14:37.594Z,4.40
2019-05-29T13:15:37.589Z,3.00
2019-05-29T13:16:37.591Z,2.60
2019-05-29T13:17:37.591Z,3.10
2019-05-29T13:18:37.592Z,3.30